createdAt,value
2022-10-02T00:00:11.420Z,58.72
2022-10-02T00:03:24.819Z,59.27
2022-10-02T00:06:10.473Z,59.27
2022-10-02T00:08:41.547Z,59.00
2022-10-02T00:11:26.086Z,58.83
2022-10-02T00:14:01.661Z,58.68
2022-10-02T00:16:41.917Z,58.60
2022-10-02T00:19:12.030Z,58.86
2022-10-02T00:21:56.885Z,58.88
2022-10-02T00:24:40.997Z,59.25
2022-10-02T00:27:42.897Z,59.13
2022-10-02T00:30:17.693Z,59.24
2022-10-02T00:33:03.540Z,59.18
2022-10-02T00:35:39.900Z,59.10
2022-10-02T00:38:52.893Z,58.95
2022-10-02T00:41:30.046Z,59.11
2022-10-02T00:44:24.806Z,59.26
2022-10-02T00:47:20.219Z,59.39
2022-10-02T00:50:29.006Z,59.31
2022-10-02T00:53:23.933Z,59.67
2022-10-02T00:56:24.006Z,59.33
2022-10-02T00:59:07.919Z,59.06
2022-10-02T01:02:36.452Z,58.97
2022-10-02T01:05:08.542Z,58.79
2022-10-02T01:07:42.719Z,58.78
2022-10-02T01:10:11.926Z,58.64
2022-10-02T01:12:39.879Z,58.49
2022-10-02T01:15:21.099Z,58.70
2022-10-02T01:17:52.634Z,58.24
2022-10-02T01:20:39.010Z,58.37
2022-10-02T01:23:38.432Z,58.77
2022-10-02T01:26:06.173Z,58.47
2022-10-02T01:28:33.312Z,58.50
2022-10-02T01:31:07.927Z,57.97
2022-10-02T01:33:37.520Z,58.05
2022-10-02T01:36:05.329Z,57.91
2022-10-02T01:38:32.664Z,58.30
2022-10-02T01:40:59.846Z,58.50
2022-10-02T01:43:34.860Z,58.21
2022-10-02T01:46:14.744Z,58.23
2022-10-02T01:48:46.702Z,58.22
2022-10-02T01:51:48.527Z,58.42
2022-10-02T01:54:48.993Z,58.46
2022-10-02T01:57:34.986Z,58.62
2022-10-02T02:00:11.142Z,58.79
2022-10-02T02:03:28.724Z,58.31
2022-10-02T02:06:20.765Z,59.01
2022-10-02T02:09:13.124Z,58.56
2022-10-02T02:11:51.312Z,58.35
2022-10-02T02:14:32.495Z,58.10
2022-10-02T02:17:32.927Z,58.57
2022-10-02T02:20:10.510Z,58.70
2022-10-02T02:22:44.555Z,58.44
2022-10-02T02:25:18.907Z,58.16
2022-10-02T02:27:53.309Z,57.85
2022-10-02T02:30:23.540Z,57.96
2022-10-02T02:33:06.464Z,57.72
2022-10-02T02:35:45.963Z,57.88
2022-10-02T02:38:30.434Z,57.79
2022-10-02T02:41:15.374Z,57.90
2022-10-02T02:44:23.126Z,57.63
2022-10-02T02:47:06.778Z,57.63
2022-10-02T02:49:49.312Z,57.51
2022-10-02T02:52:42.251Z,57.80
2022-10-02T02:55:33.384Z,57.22
2022-10-02T02:58:16.848Z,57.01
2022-10-02T03:00:44.531Z,56.65
2022-10-02T03:03:11.675Z,56.49
2022-10-02T03:05:46.630Z,56.48
2022-10-02T03:08:28.365Z,56.78
2022-10-02T03:11:16.872Z,56.58
2022-10-02T03:14:01.086Z,56.67
2022-10-02T03:17:08.581Z,56.29
2022-10-02T03:20:11.798Z,56.36
2022-10-02T03:23:19.206Z,56.31
2022-10-02T03:26:02.679Z,56.28
2022-10-02T03:28:54.838Z,56.14
2022-10-02T03:31:25.653Z,56.11
2022-10-02T03:33:53.931Z,56.04
2022-10-02T03:36:24.503Z,55.82
2022-10-02T03:39:23.102Z,55.59
2022-10-02T03:41:45.510Z,55.21
2022-10-02T03:44:12.584Z,55.48
2022-10-02T03:46:40.668Z,55.48
2022-10-02T03:49:07.931Z,55.38
2022-10-02T03:51:35.019Z,55.36
2022-10-02T03:54:02.162Z,55.49
2022-10-02T03:56:45.846Z,55.31
2022-10-02T03:59:40.605Z,55.87
2022-10-02T04:02:18.272Z,56.03
2022-10-02T04:04:56.702Z,56.07
2022-10-02T04:07:32.265Z,56.01
2022-10-02T04:10:22.638Z,56.07
2022-10-02T04:12:55.935Z,56.15
2022-10-02T04:15:33.244Z,56.05
2022-10-02T04:18:08.504Z,56.43
2022-10-02T04:20:51.876Z,56.43
2022-10-02T04:23:35.356Z,56.62
2022-10-02T04:26:22.940Z,56.67
2022-10-02T04:29:02.557Z,56.74
2022-10-02T04:31:29.693Z,56.78
2022-10-02T04:34:02.812Z,56.62
2022-10-02T04:37:02.836Z,56.83
2022-10-02T04:40:22.382Z,57.25
2022-10-02T04:43:10.311Z,56.96
2022-10-02T04:46:09.187Z,57.12
2022-10-02T04:49:17.229Z,57.20
2022-10-02T04:52:09.203Z,57.37
2022-10-02T04:55:03.114Z,57.47
2022-10-02T04:57:53.404Z,57.36
2022-10-02T05:00:23.585Z,57.42
2022-10-02T05:03:27.122Z,57.38
2022-10-02T05:06:24.422Z,57.46
2022-10-02T05:09:17.133Z,57.69
2022-10-02T05:12:16.220Z,57.73
2022-10-02T05:15:09.491Z,57.95
2022-10-02T05:18:19.495Z,57.75
2022-10-02T05:21:20.073Z,57.95
2022-10-02T05:24:19.702Z,57.79
2022-10-02T05:26:58.589Z,57.63
2022-10-02T05:29:55.168Z,57.47
2022-10-02T05:32:37.996Z,57.52
2022-10-02T05:35:18.386Z,57.42
2022-10-02T05:38:27.056Z,57.35
2022-10-02T05:41:18.604Z,57.05
2022-10-02T05:44:03.305Z,57.37
2022-10-02T05:46:40.581Z,57.01
2022-10-02T05:49:12.761Z,56.74
2022-10-02T05:52:23.159Z,56.74
2022-10-02T05:55:29.252Z,56.09
2022-10-02T05:58:05.727Z,55.82
2022-10-02T06:01:11.185Z,55.75
2022-10-02T06:03:57.295Z,55.71
2022-10-02T06:06:49.123Z,55.35
2022-10-02T06:09:25.764Z,55.33
2022-10-02T06:12:11.041Z,55.38
2022-10-02T06:14:51.080Z,55.93
2022-10-02T06:17:37.895Z,55.76
2022-10-02T06:20:42.257Z,55.68
2022-10-02T06:23:27.221Z,55.93
2022-10-02T06:26:13.299Z,55.62
2022-10-02T06:29:27.349Z,55.33
2022-10-02T06:32:12.047Z,55.31
2022-10-02T06:34:39.167Z,55.02
2022-10-02T06:37:26.418Z,54.91
2022-10-02T06:40:06.836Z,54.60
2022-10-02T06:42:33.800Z,54.47
2022-10-02T06:45:46.215Z,53.85
2022-10-02T06:48:38.566Z,53.58
2022-10-02T06:51:34.391Z,53.21
2022-10-02T06:54:26.077Z,53.14
2022-10-02T06:57:13.801Z,53.44
2022-10-02T07:00:12.029Z,53.57
2022-10-02T07:02:47.961Z,52.89
2022-10-02T07:06:11.803Z,52.74
2022-10-02T07:09:27.034Z,52.69
2022-10-02T07:12:18.412Z,52.09
2022-10-02T07:15:19.599Z,51.96
2022-10-02T07:18:24.264Z,51.66
2022-10-02T07:21:19.051Z,51.87
2022-10-02T07:24:16.228Z,51.55
2022-10-02T07:26:57.151Z,51.09
2022-10-02T07:29:54.553Z,50.86
2022-10-02T07:32:42.814Z,51.15
2022-10-02T07:35:38.914Z,51.28
2022-10-02T07:38:45.019Z,51.18
2022-10-02T07:41:43.087Z,51.24
2022-10-02T07:44:18.451Z,50.43
2022-10-02T07:47:13.105Z,50.73
2022-10-02T07:50:18.527Z,50.59
2022-10-02T07:53:32.523Z,50.32
2022-10-02T07:56:00.766Z,50.28
2022-10-02T07:59:03.129Z,50.24
2022-10-02T08:01:37.527Z,50.25
2022-10-02T08:04:12.786Z,50.77
2022-10-02T08:06:40.294Z,49.92
2022-10-02T08:09:31.324Z,50.09
2022-10-02T08:12:29.441Z,49.86
2022-10-02T08:14:59.273Z,49.52
2022-10-02T08:18:16.459Z,49.71
2022-10-02T08:20:48.487Z,49.75
2022-10-02T08:23:29.995Z,49.25
2022-10-02T08:26:00.116Z,49.36
2022-10-02T08:28:41.966Z,49.40
2022-10-02T08:31:14.483Z,50.00
2022-10-02T08:33:42.513Z,49.38
2022-10-02T08:36:47.958Z,48.92
2022-10-02T08:39:32.171Z,48.94
2022-10-02T08:42:56.316Z,48.63
2022-10-02T08:45:40.991Z,48.78
2022-10-02T08:48:38.912Z,48.58
2022-10-02T08:51:42.447Z,48.21
2022-10-02T08:54:21.755Z,48.17
2022-10-02T08:57:28.429Z,47.67
2022-10-02T09:00:10.217Z,47.39
2022-10-02T09:03:24.729Z,47.41
2022-10-02T09:06:50.871Z,47.21
2022-10-02T09:09:35.921Z,46.39
2022-10-02T09:12:05.935Z,45.88
2022-10-02T09:15:00.122Z,44.98
2022-10-02T09:17:47.326Z,44.62
2022-10-02T09:20:29.336Z,45.24
2022-10-02T09:23:34.042Z,45.14
2022-10-02T09:26:50.583Z,44.80
2022-10-02T09:29:52.047Z,44.23
2022-10-02T09:33:03.900Z,43.93
2022-10-02T09:36:08.267Z,44.60
2022-10-02T09:39:11.847Z,43.53
2022-10-02T09:42:16.920Z,44.29
2022-10-02T09:45:32.419Z,48.04
2022-10-02T09:48:11.871Z,54.57
2022-10-02T09:51:23.253Z,54.57
2022-10-02T09:54:24.683Z,52.45
2022-10-02T09:57:35.867Z,52.52
2022-10-02T10:00:51.364Z,53.81
2022-10-02T10:04:12.870Z,54.34
2022-10-02T10:07:02.523Z,54.71
2022-10-02T10:10:20.273Z,53.57
2022-10-02T10:12:56.226Z,52.08
2022-10-02T10:15:38.224Z,52.09
2022-10-02T10:18:26.633Z,51.54
2022-10-02T10:21:16.817Z,50.44
2022-10-02T10:24:31.341Z,50.47
2022-10-02T10:27:30.822Z,49.97
2022-10-02T10:30:27.380Z,48.63
2022-10-02T10:33:24.314Z,48.64
2022-10-02T10:36:49.976Z,46.54
2022-10-02T10:39:53.170Z,45.94
2022-10-02T10:43:06.265Z,46.54
2022-10-02T10:45:56.168Z,46.29
2022-10-02T10:48:49.539Z,45.33
2022-10-02T10:51:45.957Z,44.45
2022-10-02T10:54:52.554Z,44.20
2022-10-02T10:57:42.166Z,43.32
2022-10-02T11:00:41.847Z,42.77
2022-10-02T11:03:31.706Z,43.34
2022-10-02T11:06:46.099Z,44.51
2022-10-02T11:10:15.754Z,43.54
2022-10-02T11:13:21.171Z,43.90
2022-10-02T11:16:39.583Z,44.58
2022-10-02T11:19:26.609Z,45.54
2022-10-02T11:22:54.112Z,45.38
2022-10-02T11:26:06.451Z,45.54
2022-10-02T11:29:00.218Z,44.53
2022-10-02T11:32:01.937Z,44.29
2022-10-02T11:35:12.855Z,44.92
2022-10-02T11:38:10.167Z,43.58
2022-10-02T11:40:55.269Z,44.58
2022-10-02T11:43:43.892Z,44.85
2022-10-02T11:46:29.121Z,43.60
2022-10-02T11:49:20.282Z,43.43
2022-10-02T11:52:48.522Z,43.77
2022-10-02T11:55:41.087Z,42.51
2022-10-02T11:58:29.916Z,41.55
2022-10-02T12:01:16.901Z,41.52
2022-10-02T12:04:06.799Z,42.23
2022-10-02T12:06:52.278Z,43.17
2022-10-02T12:09:29.345Z,41.71
2022-10-02T12:12:28.719Z,40.88
2022-10-02T12:15:30.113Z,37.52
2022-10-02T12:18:47.444Z,37.42
2022-10-02T12:22:25.421Z,37.03
2022-10-02T12:25:35.352Z,36.30
2022-10-02T12:28:25.144Z,34.87
2022-10-02T12:31:12.102Z,33.75
2022-10-02T12:33:50.770Z,34.76
2022-10-02T12:36:41.341Z,36.05
2022-10-02T12:39:29.938Z,35.22
2022-10-02T12:42:18.003Z,35.87
2022-10-02T12:45:34.290Z,37.23
2022-10-02T12:48:44.607Z,38.00
2022-10-02T12:51:44.157Z,39.18
2022-10-02T12:54:26.169Z,38.76
2022-10-02T12:57:39.260Z,39.23
2022-10-02T13:00:19.713Z,38.58
2022-10-02T13:03:43.885Z,37.29
2022-10-02T13:06:37.922Z,35.85
2022-10-02T13:09:17.897Z,34.76
2022-10-02T13:11:56.040Z,35.61
2022-10-02T13:14:41.961Z,36.41
2022-10-02T13:17:21.682Z,37.98
2022-10-02T13:20:50.325Z,38.08
2022-10-02T13:23:48.641Z,37.09
2022-10-02T13:26:46.439Z,35.08
2022-10-02T13:29:29.514Z,33.98
2022-10-02T13:32:43.245Z,34.92
2022-10-02T13:35:41.390Z,38.58
2022-10-02T13:38:21.158Z,40.33
2022-10-02T13:40:48.579Z,37.44
2022-10-02T13:43:58.506Z,40.54
2022-10-02T13:46:52.015Z,43.23
2022-10-02T13:50:06.016Z,42.12
2022-10-02T13:53:08.241Z,39.77
2022-10-02T13:55:41.294Z,38.38
2022-10-02T13:58:37.885Z,40.09
2022-10-02T14:01:55.223Z,37.81
2022-10-02T14:04:55.443Z,37.44
2022-10-02T14:07:41.159Z,35.28
2022-10-02T14:10:35.381Z,35.91
2022-10-02T14:13:48.205Z,34.45
2022-10-02T14:17:10.203Z,36.18
2022-10-02T14:20:05.079Z,38.30
2022-10-02T14:23:26.011Z,39.87
2022-10-02T14:26:11.078Z,41.42
2022-10-02T14:29:00.893Z,42.69
2022-10-02T14:31:54.046Z,42.81
2022-10-02T14:35:07.416Z,42.58
2022-10-02T14:37:55.437Z,43.75
2022-10-02T14:40:31.306Z,44.82
2022-10-02T14:43:26.995Z,44.96
2022-10-02T14:46:27.710Z,44.74
2022-10-02T14:49:18.063Z,42.74
2022-10-02T14:51:51.929Z,38.84
2022-10-02T14:54:45.852Z,38.33
2022-10-02T14:57:31.931Z,40.93
2022-10-02T15:00:18.233Z,42.38
2022-10-02T15:02:58.431Z,43.20
2022-10-02T15:06:05.269Z,42.19
2022-10-02T15:09:10.442Z,39.47
2022-10-02T15:11:37.637Z,37.61
2022-10-02T15:14:38.427Z,35.86
2022-10-02T15:17:56.742Z,34.88
2022-10-02T15:20:40.601Z,35.87
2022-10-02T15:23:13.874Z,37.07
2022-10-02T15:26:09.690Z,38.87
2022-10-02T15:28:48.948Z,39.81
2022-10-02T15:31:44.304Z,40.88
2022-10-02T15:34:46.850Z,42.22
2022-10-02T15:37:28.648Z,43.47
2022-10-02T15:40:32.892Z,43.93
2022-10-02T15:43:18.125Z,45.13
2022-10-02T15:46:17.950Z,46.63
2022-10-02T15:49:12.378Z,46.88
2022-10-02T15:52:16.944Z,48.08
2022-10-02T15:55:27.835Z,48.59
2022-10-02T15:58:12.641Z,48.59
2022-10-02T16:01:25.163Z,48.87
2022-10-02T16:04:01.942Z,49.07
2022-10-02T16:07:02.602Z,49.22
2022-10-02T16:10:08.430Z,49.06
2022-10-02T16:13:02.825Z,49.70
2022-10-02T16:16:04.769Z,50.20
2022-10-02T16:18:49.065Z,50.01
2022-10-02T16:21:45.479Z,50.22
2022-10-02T16:24:43.571Z,50.57
2022-10-02T16:27:20.450Z,50.96
2022-10-02T16:30:13.226Z,51.46
2022-10-02T16:33:01.612Z,51.93
2022-10-02T16:35:43.763Z,52.44
2022-10-02T16:38:49.238Z,52.89
2022-10-02T16:41:28.334Z,53.23
2022-10-02T16:44:38.355Z,52.98
2022-10-02T16:47:18.507Z,53.16
2022-10-02T16:50:04.148Z,53.79
2022-10-02T16:52:53.042Z,53.82
2022-10-02T16:55:54.801Z,53.85
2022-10-02T16:58:31.176Z,53.95
2022-10-02T17:01:29.726Z,53.93
2022-10-02T17:04:06.056Z,54.11
2022-10-02T17:06:47.302Z,57.42
2022-10-02T17:09:31.892Z,59.54
2022-10-02T17:12:21.163Z,60.26
2022-10-02T17:14:58.194Z,61.22
2022-10-02T17:18:00.493Z,61.05
2022-10-02T17:20:33.175Z,60.93
2022-10-02T17:23:35.966Z,60.77
2022-10-02T17:26:12.351Z,61.09
2022-10-02T17:29:02.154Z,61.23
2022-10-02T17:31:47.337Z,60.33
2022-10-02T17:34:24.465Z,59.85
2022-10-02T17:37:10.088Z,60.09
2022-10-02T17:40:05.179Z,59.79
2022-10-02T17:42:53.815Z,59.45
2022-10-02T17:45:50.869Z,59.27
2022-10-02T17:48:37.637Z,59.75
2022-10-02T17:54:44.736Z,59.74
2022-10-02T17:57:14.730Z,59.94
2022-10-02T18:00:11.948Z,60.43
2022-10-02T18:03:23.136Z,59.77
2022-10-02T18:06:33.063Z,60.67
2022-10-02T18:09:34.694Z,60.84
2022-10-02T18:12:31.308Z,60.74
2022-10-02T18:15:32.476Z,60.57
2022-10-02T18:18:35.387Z,60.06
2022-10-02T18:21:56.367Z,60.56
2022-10-02T18:25:22.856Z,60.00
2022-10-02T18:28:11.325Z,59.82
2022-10-02T18:30:57.567Z,60.45
2022-10-02T18:33:42.423Z,59.97
2022-10-02T18:36:30.430Z,60.27
2022-10-02T18:39:37.367Z,60.12
2022-10-02T18:42:40.961Z,60.50
2022-10-02T18:45:43.781Z,60.49
2022-10-02T18:48:33.429Z,60.78
2022-10-02T18:51:10.889Z,60.55
2022-10-02T18:54:11.688Z,60.90
2022-10-02T18:57:09.426Z,60.97
2022-10-02T18:59:53.031Z,60.43
2022-10-02T19:02:50.858Z,60.44
2022-10-02T19:05:59.870Z,60.12
2022-10-02T19:09:07.667Z,60.21
2022-10-02T19:11:57.694Z,60.61
2022-10-02T19:14:42.496Z,60.45
2022-10-02T19:17:31.022Z,60.32
2022-10-02T19:19:58.716Z,59.71
2022-10-02T19:22:38.453Z,60.16
2022-10-02T19:25:16.786Z,60.16
2022-10-02T19:27:50.497Z,60.14
2022-10-02T19:30:32.289Z,60.05
2022-10-02T19:33:07.998Z,60.02
2022-10-02T19:35:43.939Z,59.91
2022-10-02T19:38:22.092Z,59.15
2022-10-02T19:40:53.833Z,59.06
2022-10-02T19:43:29.329Z,58.90
2022-10-02T19:46:02.061Z,58.52
2022-10-02T19:48:31.735Z,58.82
2022-10-02T19:51:05.183Z,58.72
2022-10-02T19:53:41.336Z,58.73
2022-10-02T19:56:26.289Z,58.50
2022-10-02T19:59:21.333Z,58.77
2022-10-02T20:01:58.835Z,58.55
2022-10-02T20:04:32.097Z,58.99
2022-10-02T20:07:02.043Z,58.89
2022-10-02T20:09:56.245Z,58.73
2022-10-02T20:12:45.033Z,58.93
2022-10-02T20:15:52.267Z,58.80
2022-10-02T20:18:23.331Z,58.80
2022-10-02T20:20:55.958Z,58.69
2022-10-02T20:23:30.400Z,58.42
2022-10-02T20:26:08.868Z,58.46
2022-10-02T20:29:09.734Z,58.13
2022-10-02T20:31:58.441Z,57.95
2022-10-02T20:35:07.612Z,57.65
2022-10-02T20:37:35.750Z,57.31
2022-10-02T20:40:18.488Z,57.14
2022-10-02T20:42:54.583Z,57.53
2022-10-02T20:45:40.601Z,58.43
2022-10-02T20:49:08.577Z,58.50
2022-10-02T20:51:57.703Z,58.97
2022-10-02T20:54:43.522Z,59.20
2022-10-02T20:58:06.510Z,59.73
2022-10-02T21:01:16.074Z,59.39
2022-10-02T21:04:23.477Z,60.19
2022-10-02T21:07:14.687Z,59.92
2022-10-02T21:10:26.403Z,59.64
2022-10-02T21:13:24.966Z,59.11
2022-10-02T21:16:10.818Z,59.11
2022-10-02T21:19:05.121Z,59.13
2022-10-02T21:21:50.445Z,59.22
2022-10-02T21:25:18.198Z,59.30
2022-10-02T21:28:25.605Z,59.35
2022-10-02T21:31:08.188Z,59.51
2022-10-02T21:33:41.316Z,59.56
2022-10-02T21:36:22.284Z,59.07
2022-10-02T21:39:14.531Z,58.84
2022-10-02T21:42:31.840Z,58.44
2022-10-02T21:46:16.600Z,59.21
2022-10-02T21:49:32.837Z,59.13
2022-10-02T21:52:57.385Z,59.15
2022-10-02T21:56:05.140Z,59.09
2022-10-02T21:58:57.031Z,59.31
2022-10-02T22:02:08.792Z,59.12
2022-10-02T22:04:54.719Z,60.05
2022-10-02T22:07:44.812Z,59.95
2022-10-02T22:10:28.668Z,60.08
2022-10-02T22:13:25.369Z,60.40
2022-10-02T22:16:04.232Z,59.87
2022-10-02T22:18:45.440Z,59.69
2022-10-02T22:22:07.896Z,59.83
2022-10-02T22:24:57.562Z,59.42
2022-10-02T22:28:11.067Z,60.08
2022-10-02T22:30:55.362Z,60.06
2022-10-02T22:33:54.223Z,59.98
2022-10-02T22:36:59.889Z,60.19
2022-10-02T22:40:22.456Z,59.93
2022-10-02T22:43:04.103Z,60.45
2022-10-02T22:45:50.113Z,60.20
2022-10-02T22:48:45.048Z,60.20
2022-10-02T22:51:38.193Z,60.58
2022-10-02T22:54:16.195Z,60.11
2022-10-02T22:57:07.107Z,59.97
2022-10-02T23:00:06.526Z,59.79
2022-10-02T23:02:50.218Z,59.36
2022-10-02T23:05:45.527Z,60.08
2022-10-02T23:08:33.488Z,59.95
2022-10-02T23:11:51.332Z,60.39
2022-10-02T23:14:27.549Z,60.57
2022-10-02T23:17:08.106Z,60.83
2022-10-02T23:19:47.831Z,60.51
2022-10-02T23:22:53.908Z,61.32
2022-10-02T23:25:33.948Z,61.07
2022-10-02T23:28:15.175Z,60.96
2022-10-02T23:30:50.590Z,61.33
2022-10-02T23:33:53.781Z,60.38
2022-10-02T23:36:30.856Z,60.72
2022-10-02T23:39:25.424Z,60.94
2022-10-02T23:41:57.723Z,60.67
2022-10-02T23:44:46.235Z,60.21
2022-10-02T23:47:34.471Z,60.36
2022-10-02T23:50:03.962Z,60.88
2022-10-02T23:53:11.309Z,61.11
2022-10-02T23:56:16.378Z,60.14
2022-10-02T23:58:53.666Z,59.84
